createdAt,value
2023-05-17T00:01:00.995Z,8.20
2023-05-17T00:03:27.873Z,8.20
2023-05-17T00:05:55.030Z,8.40
2023-05-17T00:08:22.031Z,8.30
2023-05-17T00:10:48.992Z,8.20
2023-05-17T00:13:15.886Z,8.10
2023-05-17T00:15:42.913Z,8.00
2023-05-17T00:18:09.905Z,8.00
2023-05-17T00:20:37.178Z,7.90
2023-05-17T00:23:04.328Z,7.80
2023-05-17T00:25:31.610Z,7.80
2023-05-17T00:27:58.626Z,7.80
2023-05-17T00:30:25.621Z,7.70
2023-05-17T00:32:52.700Z,7.70
2023-05-17T00:35:19.859Z,7.70
2023-05-17T00:37:48.135Z,7.70
2023-05-17T00:40:16.322Z,7.80
2023-05-17T00:42:43.255Z,7.80
2023-05-17T00:45:10.874Z,7.80
2023-05-17T00:47:37.891Z,7.80
2023-05-17T00:50:05.895Z,7.70
2023-05-17T00:52:33.532Z,7.80
2023-05-17T00:55:00.722Z,7.70
2023-05-17T00:57:29.282Z,7.70
2023-05-17T00:59:56.273Z,7.70
2023-05-17T01:02:24.043Z,7.60
2023-05-17T01:04:51.323Z,7.60
2023-05-17T01:07:18.653Z,7.60
2023-05-17T01:09:47.518Z,7.50
2023-05-17T01:12:43.366Z,7.60
2023-05-17T01:15:13.386Z,7.50
2023-05-17T01:17:43.321Z,7.50
2023-05-17T01:20:26.209Z,7.50
2023-05-17T01:23:08.740Z,7.50
2023-05-17T01:25:44.839Z,7.50
2023-05-17T01:28:12.565Z,7.50
2023-05-17T01:30:40.219Z,7.50
2023-05-17T01:33:10.041Z,7.50
2023-05-17T01:35:36.977Z,7.40
2023-05-17T01:38:03.879Z,7.40
2023-05-17T01:40:34.030Z,7.30
2023-05-17T01:43:21.351Z,7.40
2023-05-17T01:45:52.880Z,7.30
2023-05-17T01:48:32.287Z,7.30
2023-05-17T01:50:59.969Z,7.40
2023-05-17T01:53:29.735Z,7.50
2023-05-17T01:56:26.199Z,7.40
2023-05-17T01:58:56.003Z,7.40
2023-05-17T02:01:24.593Z,7.40
2023-05-17T02:03:51.585Z,7.50
2023-05-17T02:06:18.645Z,7.50
2023-05-17T02:08:45.646Z,7.50
2023-05-17T02:11:13.035Z,7.50
2023-05-17T02:13:40.548Z,7.50
2023-05-17T02:16:07.566Z,7.50
2023-05-17T02:18:35.844Z,7.50
2023-05-17T02:21:03.148Z,7.40
2023-05-17T02:23:30.090Z,7.40
2023-05-17T02:25:57.071Z,7.40
2023-05-17T02:28:24.032Z,7.40
2023-05-17T02:30:51.103Z,7.40
2023-05-17T02:33:19.170Z,7.30
2023-05-17T02:35:46.283Z,7.30
2023-05-17T02:38:13.198Z,7.20
2023-05-17T02:40:42.181Z,7.20
2023-05-17T02:43:09.092Z,7.30
2023-05-17T02:45:37.249Z,7.20
2023-05-17T02:48:06.064Z,7.20
2023-05-17T02:50:33.091Z,7.20
2023-05-17T02:53:00.192Z,7.10
2023-05-17T02:55:27.421Z,7.10
2023-05-17T02:57:54.996Z,7.10
2023-05-17T03:00:23.088Z,7.00
2023-05-17T03:02:50.760Z,7.10
2023-05-17T03:05:17.961Z,7.10
2023-05-17T03:07:49.072Z,7.10
2023-05-17T03:10:17.004Z,7.10
2023-05-17T03:12:45.972Z,7.10
2023-05-17T03:15:15.061Z,7.20
2023-05-17T03:17:42.074Z,7.10
2023-05-17T03:20:09.809Z,7.10
2023-05-17T03:22:37.121Z,7.00
2023-05-17T03:25:05.335Z,7.00
2023-05-17T03:27:33.520Z,7.00
2023-05-17T03:30:00.737Z,7.00
2023-05-17T03:32:28.867Z,6.90
2023-05-17T03:34:55.964Z,6.90
2023-05-17T03:37:23.270Z,6.90
2023-05-17T03:39:50.334Z,6.80
2023-05-17T03:42:17.368Z,6.80
2023-05-17T03:44:44.508Z,6.80
2023-05-17T03:47:12.002Z,6.80
2023-05-17T03:49:39.066Z,6.60
2023-05-17T03:52:06.829Z,6.60
2023-05-17T03:54:33.764Z,6.60
2023-05-17T03:57:01.023Z,6.50
2023-05-17T03:59:28.084Z,6.50
2023-05-17T04:01:55.089Z,6.50
2023-05-17T04:04:22.246Z,6.60
2023-05-17T04:06:49.250Z,6.70
2023-05-17T04:09:16.613Z,6.60
2023-05-17T04:11:43.657Z,6.50
2023-05-17T04:14:11.847Z,6.60
2023-05-17T04:16:38.825Z,6.60
2023-05-17T04:19:06.222Z,6.70
2023-05-17T04:21:33.293Z,6.80
2023-05-17T04:24:00.752Z,6.80
2023-05-17T04:26:27.741Z,6.70
2023-05-17T04:28:54.693Z,6.70
2023-05-17T04:31:22.818Z,6.50
2023-05-17T04:33:51.284Z,6.50
2023-05-17T04:36:18.665Z,6.60
2023-05-17T04:38:46.500Z,6.60
2023-05-17T04:41:17.391Z,6.70
2023-05-17T04:43:44.441Z,6.90
2023-05-17T04:46:19.381Z,6.90
2023-05-17T04:48:47.312Z,7.00
2023-05-17T04:51:14.724Z,7.00
2023-05-17T04:53:42.055Z,7.10
2023-05-17T04:56:13.715Z,7.10
2023-05-17T04:58:41.197Z,7.20
2023-05-17T05:01:08.264Z,7.30
2023-05-17T05:03:36.716Z,7.40
2023-05-17T05:06:06.402Z,7.40
2023-05-17T05:08:34.120Z,7.60
2023-05-17T05:11:01.262Z,7.60
2023-05-17T05:13:31.915Z,7.80
2023-05-17T05:15:58.844Z,7.90
2023-05-17T05:18:27.778Z,8.00
2023-05-17T05:20:55.150Z,8.10
2023-05-17T05:23:22.236Z,8.30
2023-05-17T05:25:49.641Z,8.40
2023-05-17T05:28:16.628Z,8.60
2023-05-17T05:30:44.444Z,8.70
2023-05-17T05:33:12.954Z,8.80
2023-05-17T05:35:40.341Z,9.00
2023-05-17T05:38:07.934Z,9.20
2023-05-17T05:40:36.423Z,9.40
2023-05-17T05:43:03.550Z,9.60
2023-05-17T05:45:32.096Z,9.80
2023-05-17T05:48:04.258Z,10.00
2023-05-17T05:50:31.943Z,10.00
2023-05-17T05:53:17.161Z,10.20
2023-05-17T05:55:49.979Z,10.10
2023-05-17T05:58:18.537Z,10.40
2023-05-17T06:00:46.464Z,10.20
2023-05-17T06:03:14.627Z,10.40
2023-05-17T06:05:41.599Z,10.50
2023-05-17T06:08:08.658Z,10.40
2023-05-17T06:10:35.671Z,10.50
2023-05-17T06:13:02.728Z,10.50
2023-05-17T06:15:31.212Z,10.60
2023-05-17T06:17:58.194Z,10.80
2023-05-17T06:20:25.257Z,11.00
2023-05-17T06:22:52.245Z,11.20
2023-05-17T06:25:19.394Z,11.30
2023-05-17T06:27:46.375Z,11.50
2023-05-17T06:30:13.542Z,11.60
2023-05-17T06:32:40.696Z,11.60
2023-05-17T06:35:08.509Z,11.60
2023-05-17T06:37:35.605Z,11.70
2023-05-17T06:40:14.874Z,11.80
2023-05-17T06:42:42.977Z,11.60
2023-05-17T06:45:10.258Z,11.70
2023-05-17T06:47:37.353Z,12.10
2023-05-17T06:50:04.623Z,12.30
2023-05-17T06:52:31.783Z,12.10
2023-05-17T06:54:58.753Z,12.10
2023-05-17T06:57:25.658Z,12.50
2023-05-17T06:59:52.833Z,12.60
2023-05-17T07:02:19.973Z,12.80
2023-05-17T07:04:47.054Z,12.30
2023-05-17T07:07:14.159Z,12.30
2023-05-17T07:09:41.520Z,12.60
2023-05-17T07:12:08.457Z,12.90
2023-05-17T07:14:35.619Z,12.80
2023-05-17T07:17:02.596Z,12.90
2023-05-17T07:19:29.796Z,12.80
2023-05-17T07:21:57.348Z,12.90
2023-05-17T07:24:24.364Z,12.90
2023-05-17T07:26:52.522Z,12.70
2023-05-17T07:29:19.729Z,12.60
2023-05-17T07:31:46.751Z,12.50
2023-05-17T07:34:14.302Z,12.60
2023-05-17T07:36:41.431Z,13.10
2023-05-17T07:39:10.128Z,13.30
2023-05-17T07:41:37.241Z,12.70
2023-05-17T07:44:04.279Z,12.70
2023-05-17T07:46:31.363Z,12.50
2023-05-17T07:48:58.924Z,12.50
2023-05-17T07:51:26.502Z,12.70
2023-05-17T07:53:53.519Z,12.80
2023-05-17T07:56:20.607Z,12.90
2023-05-17T07:58:47.638Z,12.60
2023-05-17T08:01:14.635Z,12.60
2023-05-17T08:03:48.021Z,13.30
2023-05-17T08:06:16.104Z,13.30
2023-05-17T08:08:43.457Z,13.40
2023-05-17T08:11:11.194Z,13.60
2023-05-17T08:13:38.436Z,13.50
2023-05-17T08:16:13.466Z,13.60
2023-05-17T08:18:42.096Z,13.80
2023-05-17T08:21:09.910Z,14.10
2023-05-17T08:23:36.917Z,14.50
2023-05-17T08:26:03.818Z,14.00
2023-05-17T08:28:30.814Z,14.10
2023-05-17T08:30:58.098Z,14.20
2023-05-17T08:33:26.340Z,14.00
2023-05-17T08:35:55.435Z,14.60
2023-05-17T08:38:22.693Z,15.40
2023-05-17T08:40:54.325Z,15.60
2023-05-17T08:43:22.511Z,15.50
2023-05-17T08:45:50.241Z,15.10
2023-05-17T08:48:19.943Z,14.70
2023-05-17T08:50:47.685Z,14.40
2023-05-17T08:53:15.154Z,14.40
2023-05-17T08:55:45.375Z,14.00
2023-05-17T08:58:12.900Z,13.70
2023-05-17T09:00:39.902Z,13.60
2023-05-17T09:03:07.011Z,13.70
2023-05-17T09:05:34.314Z,13.70
2023-05-17T09:08:02.190Z,13.60
2023-05-17T09:10:30.858Z,13.50
2023-05-17T09:12:58.026Z,13.70
2023-05-17T09:15:27.171Z,14.00
2023-05-17T09:17:54.552Z,14.50
2023-05-17T09:20:25.351Z,14.50
2023-05-17T09:22:52.580Z,14.90
2023-05-17T09:25:20.145Z,14.80
2023-05-17T09:27:47.185Z,14.90
2023-05-17T09:30:14.258Z,14.90
2023-05-17T09:35:19.776Z,14.50
2023-05-17T09:37:47.321Z,14.70
2023-05-17T09:40:32.526Z,14.90
2023-05-17T09:42:59.970Z,15.50
2023-05-17T09:45:27.194Z,15.90
2023-05-17T09:47:54.434Z,15.70
2023-05-17T09:50:23.742Z,15.50
2023-05-17T09:52:52.454Z,15.40
2023-05-17T09:55:28.036Z,15.50
2023-05-17T09:58:02.534Z,15.10
2023-05-17T10:00:29.722Z,14.90
2023-05-17T10:02:57.236Z,14.70
2023-05-17T10:05:25.360Z,14.50
2023-05-17T10:07:52.993Z,14.70
2023-05-17T10:10:20.844Z,14.40
2023-05-17T10:12:48.161Z,14.20
2023-05-17T10:15:17.880Z,14.00
2023-05-17T10:17:45.790Z,13.90
2023-05-17T10:20:13.784Z,13.80
2023-05-17T10:22:41.401Z,14.00
2023-05-17T10:25:08.887Z,14.10
2023-05-17T10:27:36.317Z,14.50
2023-05-17T10:30:03.634Z,14.40
2023-05-17T10:32:31.172Z,14.40
2023-05-17T10:35:10.299Z,14.50
2023-05-17T10:37:40.110Z,14.30
2023-05-17T10:40:07.736Z,14.90
2023-05-17T10:42:34.962Z,15.00
2023-05-17T10:45:01.985Z,15.00
2023-05-17T10:47:32.855Z,14.70
2023-05-17T10:49:59.810Z,15.00
2023-05-17T10:52:27.625Z,15.10
2023-05-17T10:54:56.516Z,15.20
2023-05-17T11:00:07.994Z,15.10
2023-05-17T11:02:39.728Z,15.20
2023-05-17T11:05:07.865Z,15.50
2023-05-17T11:07:37.511Z,15.60
2023-05-17T11:10:09.808Z,15.60
2023-05-17T11:12:40.496Z,15.90
2023-05-17T11:15:09.020Z,15.70
2023-05-17T11:17:51.318Z,16.00
2023-05-17T11:20:18.849Z,15.80
2023-05-17T11:23:01.589Z,15.50
2023-05-17T11:25:38.496Z,15.80
2023-05-17T11:28:19.250Z,15.80
2023-05-17T11:30:52.050Z,15.60
2023-05-17T11:33:29.706Z,16.00
2023-05-17T11:36:05.295Z,16.00
2023-05-17T11:38:33.086Z,16.50
2023-05-17T11:41:26.457Z,17.50
2023-05-17T11:43:55.501Z,17.30
2023-05-17T11:46:24.069Z,17.50
2023-05-17T11:48:52.427Z,18.30
2023-05-17T11:51:21.386Z,18.10
2023-05-17T11:53:50.941Z,17.70
2023-05-17T11:56:19.301Z,18.80
2023-05-17T11:58:50.770Z,18.00
2023-05-17T12:01:17.734Z,17.80
2023-05-17T12:03:44.603Z,18.10
2023-05-17T12:06:15.550Z,18.40
2023-05-17T12:08:46.399Z,17.90
2023-05-17T12:11:19.829Z,18.10
2023-05-17T12:13:48.967Z,17.70
2023-05-17T12:16:18.149Z,16.80
2023-05-17T12:18:48.035Z,16.20
2023-05-17T12:21:15.860Z,16.00
2023-05-17T12:23:48.837Z,15.80
2023-05-17T12:26:18.162Z,15.80
2023-05-17T12:28:46.208Z,16.10
2023-05-17T12:31:14.533Z,16.50
2023-05-17T12:33:42.444Z,17.20
2023-05-17T12:36:10.530Z,17.60
2023-05-17T12:38:38.960Z,18.30
2023-05-17T12:41:06.702Z,18.80
2023-05-17T12:43:34.338Z,19.20
2023-05-17T12:46:06.069Z,19.50
2023-05-17T12:48:33.732Z,19.70
2023-05-17T12:51:13.005Z,19.80
2023-05-17T12:53:59.856Z,19.30
2023-05-17T12:56:27.956Z,18.30
2023-05-17T12:59:07.224Z,19.70
2023-05-17T13:01:35.222Z,20.80
2023-05-17T13:04:02.779Z,20.70
2023-05-17T13:06:30.346Z,21.00
2023-05-17T13:09:00.650Z,22.90
2023-05-17T13:11:27.613Z,22.40
2023-05-17T13:13:54.675Z,22.60
2023-05-17T13:16:28.864Z,22.40
2023-05-17T13:18:56.222Z,24.90
2023-05-17T13:21:23.390Z,25.40
2023-05-17T13:23:50.837Z,22.20
2023-05-17T13:26:18.287Z,22.50
2023-05-17T13:28:45.791Z,22.70
2023-05-17T13:31:12.847Z,23.20
2023-05-17T13:33:39.977Z,25.40
2023-05-17T13:36:07.056Z,26.50
2023-05-17T13:38:34.332Z,25.80
2023-05-17T13:41:01.258Z,27.60
2023-05-17T13:43:28.221Z,26.00
2023-05-17T13:45:59.015Z,23.00
2023-05-17T13:48:26.199Z,21.80
2023-05-17T13:50:53.336Z,20.60
2023-05-17T13:53:20.457Z,20.80
2023-05-17T13:55:47.701Z,20.50
2023-05-17T13:58:16.852Z,20.30
2023-05-17T14:00:44.553Z,20.10
2023-05-17T14:03:12.546Z,21.90
2023-05-17T14:05:40.061Z,24.20
2023-05-17T14:08:07.707Z,27.20
2023-05-17T14:10:35.230Z,27.90
2023-05-17T14:13:02.286Z,26.00
2023-05-17T14:15:29.261Z,29.90
2023-05-17T14:17:56.375Z,31.50
2023-05-17T14:20:23.447Z,32.20
2023-05-17T14:22:50.778Z,31.00
2023-05-17T14:25:17.981Z,30.40
2023-05-17T14:27:44.888Z,29.30
2023-05-17T14:30:13.604Z,28.70
2023-05-17T14:32:41.394Z,26.90
2023-05-17T14:35:09.056Z,24.70
2023-05-17T14:37:36.422Z,25.00
2023-05-17T14:40:06.809Z,24.90
2023-05-17T14:42:34.170Z,25.10
2023-05-17T14:45:01.284Z,24.20
2023-05-17T14:47:28.368Z,25.00
2023-05-17T14:49:55.395Z,24.40
2023-05-17T14:52:22.583Z,25.50
2023-05-17T14:54:49.468Z,25.40
2023-05-17T14:57:16.487Z,24.80
2023-05-17T14:59:45.171Z,25.40
2023-05-17T15:02:12.372Z,22.70
2023-05-17T15:04:39.819Z,24.40
2023-05-17T15:07:07.100Z,25.00
2023-05-17T15:09:39.124Z,23.90
2023-05-17T15:12:06.406Z,25.00
2023-05-17T15:14:33.411Z,26.50
2023-05-17T15:17:02.339Z,27.80
2023-05-17T15:19:29.447Z,28.00
2023-05-17T15:21:56.544Z,27.80
2023-05-17T15:24:23.482Z,28.10
2023-05-17T15:26:50.517Z,27.60
2023-05-17T15:29:17.425Z,24.50
2023-05-17T15:31:44.321Z,22.40
2023-05-17T15:34:11.338Z,22.50
2023-05-17T15:36:38.429Z,22.60
2023-05-17T15:39:05.445Z,21.60
2023-05-17T15:41:32.547Z,21.40
2023-05-17T15:43:59.610Z,20.50
2023-05-17T15:46:26.817Z,22.20
2023-05-17T15:48:53.835Z,26.40
2023-05-17T15:51:20.938Z,26.70
2023-05-17T15:53:48.311Z,24.50
2023-05-17T15:56:17.571Z,22.70
2023-05-17T15:58:44.560Z,21.70
2023-05-17T16:01:11.475Z,23.60
2023-05-17T16:03:38.476Z,24.00
2023-05-17T16:06:05.743Z,25.50
2023-05-17T16:08:33.005Z,25.90
2023-05-17T16:11:02.061Z,29.10
2023-05-17T16:13:29.494Z,29.10
2023-05-17T16:15:57.061Z,27.20
2023-05-17T16:18:24.043Z,23.30
2023-05-17T16:20:57.549Z,21.90
2023-05-17T16:23:24.873Z,21.60
2023-05-17T16:25:52.008Z,23.30
2023-05-17T16:28:21.596Z,24.80
2023-05-17T16:30:51.856Z,25.20
2023-05-17T16:33:20.662Z,25.00
2023-05-17T16:35:50.722Z,26.20
2023-05-17T16:38:17.729Z,25.80
2023-05-17T16:40:44.636Z,25.50
2023-05-17T16:43:15.996Z,26.80
2023-05-17T16:45:44.257Z,26.20
2023-05-17T16:48:14.752Z,25.60
2023-05-17T16:50:42.169Z,26.80
2023-05-17T16:53:09.320Z,25.60
2023-05-17T16:55:36.722Z,26.20
2023-05-17T16:58:03.858Z,24.80
2023-05-17T17:00:31.303Z,23.50
2023-05-17T17:02:59.336Z,23.00
2023-05-17T17:05:27.241Z,22.60
2023-05-17T17:07:54.386Z,22.40
2023-05-17T17:10:21.529Z,22.00
2023-05-17T17:12:49.284Z,22.20
2023-05-17T17:15:16.267Z,22.40
2023-05-17T17:17:43.513Z,22.30
2023-05-17T17:20:10.683Z,22.50
2023-05-17T17:22:37.653Z,21.90
2023-05-17T17:25:04.791Z,20.70
2023-05-17T17:27:31.849Z,19.50
2023-05-17T17:29:59.173Z,18.60
2023-05-17T17:32:26.166Z,17.90
2023-05-17T17:34:53.145Z,17.50
2023-05-17T17:37:20.179Z,16.80
2023-05-17T17:39:47.135Z,16.50
2023-05-17T17:42:14.186Z,16.10
2023-05-17T17:44:41.136Z,16.00
2023-05-17T17:47:08.201Z,15.60
2023-05-17T17:49:36.112Z,15.40
2023-05-17T17:52:03.339Z,15.20
2023-05-17T17:54:30.372Z,15.20
2023-05-17T17:56:58.472Z,15.20
2023-05-17T17:59:25.429Z,15.00
2023-05-17T18:01:52.565Z,15.10
2023-05-17T18:04:19.725Z,15.00
2023-05-17T18:06:46.751Z,15.00
2023-05-17T18:09:13.802Z,14.80
2023-05-17T18:11:40.791Z,14.70
2023-05-17T18:14:08.237Z,14.50
2023-05-17T18:16:35.251Z,14.20
2023-05-17T18:19:02.264Z,14.20
2023-05-17T18:21:32.294Z,14.20
2023-05-17T18:24:00.580Z,14.00
2023-05-17T18:26:27.596Z,13.60
2023-05-17T18:28:54.517Z,13.40
2023-05-17T18:31:21.420Z,13.30
2023-05-17T18:33:48.361Z,13.30
2023-05-17T18:36:15.532Z,13.10
2023-05-17T18:38:42.538Z,13.00
2023-05-17T18:41:09.571Z,12.80
2023-05-17T18:43:36.535Z,12.70
2023-05-17T18:46:03.967Z,12.50
2023-05-17T18:48:35.550Z,12.50
2023-05-17T18:51:02.886Z,12.40
2023-05-17T18:53:30.041Z,12.20
2023-05-17T18:55:59.656Z,12.00
2023-05-17T18:58:26.815Z,11.90
2023-05-17T19:00:53.834Z,11.80
2023-05-17T19:03:22.189Z,11.70
2023-05-17T19:05:49.129Z,11.60
2023-05-17T19:08:16.011Z,11.40
2023-05-17T19:10:42.950Z,11.40
2023-05-17T19:13:09.929Z,11.30
2023-05-17T19:15:36.966Z,11.10
2023-05-17T19:18:04.154Z,10.90
2023-05-17T19:20:31.834Z,10.90
2023-05-17T19:22:58.905Z,10.80
2023-05-17T19:25:25.859Z,10.80
2023-05-17T19:27:52.880Z,11.00
2023-05-17T19:30:19.867Z,10.90
2023-05-17T19:32:46.872Z,10.90
2023-05-17T19:35:13.980Z,10.90
2023-05-17T19:37:41.036Z,10.90
2023-05-17T19:40:08.493Z,10.70
2023-05-17T19:42:35.482Z,10.50
2023-05-17T19:45:02.470Z,10.30
2023-05-17T19:47:29.442Z,10.10
2023-05-17T19:49:56.615Z,10.10
2023-05-17T19:52:23.501Z,9.90
2023-05-17T19:54:50.482Z,9.80
2023-05-17T19:57:17.376Z,9.80
2023-05-17T19:59:45.109Z,9.80
2023-05-17T20:02:12.282Z,9.70
2023-05-17T20:04:39.444Z,9.70
2023-05-17T20:07:06.680Z,9.80
2023-05-17T20:09:33.672Z,9.70
2023-05-17T20:12:00.773Z,9.80
2023-05-17T20:14:27.787Z,9.80
2023-05-17T20:16:54.764Z,9.60
2023-05-17T20:19:21.966Z,9.60
2023-05-17T20:21:49.086Z,9.50
2023-05-17T20:24:16.038Z,9.40
2023-05-17T20:26:46.318Z,9.30
2023-05-17T20:29:13.382Z,9.40
2023-05-17T20:31:40.372Z,9.50
2023-05-17T20:34:07.624Z,9.40
2023-05-17T20:36:34.608Z,9.40
2023-05-17T20:39:01.604Z,9.40
2023-05-17T20:41:28.515Z,9.60
2023-05-17T20:43:55.837Z,9.70
2023-05-17T20:46:22.883Z,9.50
2023-05-17T20:48:50.603Z,9.50
2023-05-17T20:51:18.191Z,9.70
2023-05-17T20:53:46.667Z,9.70
2023-05-17T20:56:14.335Z,9.60
2023-05-17T20:58:41.451Z,9.40
2023-05-17T21:01:08.404Z,9.30
2023-05-17T21:03:35.609Z,9.30
2023-05-17T21:06:02.696Z,9.30
2023-05-17T21:08:29.616Z,9.30
2023-05-17T21:10:56.651Z,9.30
2023-05-17T21:13:25.792Z,9.30
2023-05-17T21:15:53.822Z,9.30
2023-05-17T21:18:21.027Z,9.30
2023-05-17T21:20:48.851Z,9.30
2023-05-17T21:23:15.809Z,9.30
2023-05-17T21:25:42.746Z,9.20
2023-05-17T21:28:09.863Z,9.30
2023-05-17T21:30:36.946Z,9.30
2023-05-17T21:33:05.240Z,9.10
2023-05-17T21:35:32.169Z,9.10
2023-05-17T21:37:59.211Z,9.10
2023-05-17T21:40:26.324Z,9.00
2023-05-17T21:42:53.443Z,9.30
2023-05-17T21:45:20.844Z,9.10
2023-05-17T21:47:47.851Z,9.20
2023-05-17T21:50:14.872Z,9.30
2023-05-17T21:52:41.854Z,9.10
2023-05-17T21:55:09.245Z,9.00
2023-05-17T21:57:36.615Z,8.90
2023-05-17T22:00:04.549Z,8.90
2023-05-17T22:02:38.213Z,8.80
2023-05-17T22:05:05.848Z,8.70
2023-05-17T22:07:32.966Z,8.80
2023-05-17T22:10:00.434Z,8.80
2023-05-17T22:12:27.332Z,8.80
2023-05-17T22:14:55.885Z,8.80
2023-05-17T22:17:32.350Z,8.70
2023-05-17T22:20:09.599Z,8.50
2023-05-17T22:22:37.540Z,8.40
2023-05-17T22:25:04.963Z,8.40
2023-05-17T22:27:31.837Z,8.40
2023-05-17T22:29:58.766Z,8.30
2023-05-17T22:32:25.999Z,8.30
2023-05-17T22:34:53.183Z,8.30
2023-05-17T22:37:22.849Z,8.40
2023-05-17T22:39:49.923Z,8.20
2023-05-17T22:42:16.861Z,8.00
2023-05-17T22:44:43.797Z,7.90
2023-05-17T22:47:14.897Z,8.10
2023-05-17T22:49:42.411Z,8.00
2023-05-17T22:52:11.221Z,8.20
2023-05-17T22:54:38.557Z,7.90
2023-05-17T22:57:05.684Z,7.80
2023-05-17T22:59:33.261Z,7.80
2023-05-17T23:02:01.415Z,7.80
2023-05-17T23:04:30.417Z,7.90
2023-05-17T23:07:03.938Z,7.70
2023-05-17T23:09:31.300Z,7.90
2023-05-17T23:12:00.341Z,8.00
2023-05-17T23:14:27.617Z,8.00
2023-05-17T23:16:54.530Z,7.90
2023-05-17T23:19:23.520Z,7.90
2023-05-17T23:21:50.759Z,7.90
2023-05-17T23:24:17.753Z,8.00
2023-05-17T23:26:44.661Z,8.00
2023-05-17T23:29:12.636Z,8.10
2023-05-17T23:31:41.410Z,8.10
2023-05-17T23:34:08.641Z,8.20
2023-05-17T23:36:35.726Z,8.20
2023-05-17T23:39:02.860Z,8.20
2023-05-17T23:41:29.771Z,8.10
2023-05-17T23:43:57.200Z,7.90
2023-05-17T23:46:24.361Z,7.90
2023-05-17T23:48:51.446Z,7.90
2023-05-17T23:51:19.385Z,8.00
2023-05-17T23:53:49.079Z,7.80
2023-05-17T23:56:17.280Z,7.70
2023-05-17T23:58:44.636Z,7.70
